createdAt,value
2023-01-22T00:02:17.550Z,271.70
2023-01-22T00:07:20.003Z,259.90
2023-01-22T00:12:28.745Z,267.70
2023-01-22T00:17:31.165Z,254.30
2023-01-22T00:22:33.264Z,246.70
2023-01-22T00:27:35.607Z,241.80
2023-01-22T00:32:40.288Z,209.00
2023-01-22T00:37:47.653Z,183.30
2023-01-22T00:42:50.482Z,192.60
2023-01-22T00:47:52.452Z,211.60
2023-01-22T00:52:55.123Z,209.90
2023-01-22T00:57:57.258Z,136.10
2023-01-22T01:03:20.785Z,200.90
2023-01-22T01:08:24.060Z,214.10
2023-01-22T01:13:27.863Z,199.20
2023-01-22T01:18:30.979Z,203.10
2023-01-22T01:23:34.137Z,199.50
2023-01-22T01:28:37.535Z,179.30
2023-01-22T01:33:39.868Z,196.50
2023-01-22T01:38:41.984Z,205.40
2023-01-22T01:43:44.163Z,198.10
2023-01-22T01:48:49.174Z,141.60
2023-01-22T01:53:52.612Z,171.80
2023-01-22T01:59:00.912Z,181.30
2023-01-22T02:04:04.014Z,174.00
2023-01-22T02:09:06.166Z,129.80
2023-01-22T02:14:14.577Z,117.70
2023-01-22T02:19:16.569Z,106.90
2023-01-22T02:24:21.306Z,116.90
2023-01-22T02:29:26.604Z,109.70
2023-01-22T02:34:28.741Z,115.30
2023-01-22T02:39:31.027Z,98.10
2023-01-22T02:44:34.359Z,115.30
2023-01-22T02:49:36.997Z,110.90
2023-01-22T02:54:39.043Z,103.30
2023-01-22T02:59:41.104Z,105.20
2023-01-22T03:04:46.749Z,98.50
2023-01-22T03:09:49.441Z,100.00
2023-01-22T03:15:10.101Z,84.00
2023-01-22T03:20:30.859Z,75.40
2023-01-22T03:25:33.417Z,87.80
2023-01-22T03:30:36.198Z,78.90
2023-01-22T03:35:39.142Z,72.40
2023-01-22T03:40:48.792Z,64.00
2023-01-22T03:45:51.569Z,66.40
2023-01-22T03:51:06.265Z,74.30
2023-01-22T03:56:12.938Z,56.90
2023-01-22T04:01:17.804Z,68.50
2023-01-22T04:06:22.223Z,71.00
2023-01-22T04:11:24.522Z,63.70
2023-01-22T04:16:26.732Z,56.80
2023-01-22T04:21:50.834Z,47.90
2023-01-22T04:26:55.665Z,44.00
2023-01-22T04:31:57.934Z,48.40
2023-01-22T04:37:19.976Z,56.20
2023-01-22T04:42:23.257Z,60.50
2023-01-22T04:47:25.543Z,68.50
2023-01-22T04:52:27.844Z,64.80
2023-01-22T04:57:31.003Z,55.40
2023-01-22T05:02:34.234Z,62.00
2023-01-22T05:07:37.478Z,50.20
2023-01-22T05:12:39.677Z,40.90
2023-01-22T05:17:41.774Z,50.50
2023-01-22T05:22:44.427Z,46.20
2023-01-22T05:27:46.903Z,53.00
2023-01-22T05:32:57.568Z,37.80
2023-01-22T05:38:00.527Z,33.50
2023-01-22T05:43:04.511Z,29.50
2023-01-22T05:48:08.394Z,35.00
2023-01-22T05:53:15.432Z,35.50
2023-01-22T05:58:20.049Z,35.70
2023-01-22T06:03:27.786Z,23.40
2023-01-22T06:08:34.399Z,22.10
2023-01-22T06:13:39.620Z,31.80
2023-01-22T06:18:49.974Z,33.50
2023-01-22T06:23:53.153Z,30.20
2023-01-22T06:28:57.479Z,33.10
2023-01-22T06:34:00.272Z,30.60
2023-01-22T06:39:02.543Z,33.40
2023-01-22T06:44:14.508Z,28.80
2023-01-22T06:49:17.396Z,26.00
2023-01-22T06:54:19.532Z,34.10
2023-01-22T06:59:21.781Z,32.00
2023-01-22T07:04:24.115Z,36.30
2023-01-22T07:09:28.763Z,33.10
2023-01-22T07:14:36.729Z,34.70
2023-01-22T07:19:39.789Z,31.00
2023-01-22T07:24:41.757Z,27.60
2023-01-22T07:29:44.405Z,26.60
2023-01-22T07:34:46.837Z,35.30
2023-01-22T07:39:49.441Z,31.30
2023-01-22T07:44:51.942Z,28.70
2023-01-22T07:50:03.251Z,33.30
2023-01-22T07:55:11.863Z,34.40
2023-01-22T08:00:16.269Z,28.10
2023-01-22T08:05:26.515Z,30.60
2023-01-22T08:10:29.002Z,31.10
2023-01-22T08:15:33.370Z,26.30
2023-01-22T08:20:35.671Z,22.80
2023-01-22T08:25:37.899Z,26.20
2023-01-22T08:30:46.387Z,33.60
2023-01-22T08:35:50.176Z,29.90
2023-01-22T08:40:53.250Z,29.10
2023-01-22T08:45:56.044Z,26.40
2023-01-22T08:51:02.585Z,22.70
2023-01-22T08:56:05.610Z,27.50
2023-01-22T09:01:07.804Z,26.90
2023-01-22T09:06:10.579Z,24.20
2023-01-22T09:11:12.594Z,22.10
2023-01-22T09:16:15.253Z,24.80
2023-01-22T09:21:18.316Z,27.60
2023-01-22T09:26:22.859Z,39.30
2023-01-22T09:31:24.882Z,30.90
2023-01-22T09:36:30.474Z,33.90
2023-01-22T09:41:40.331Z,31.30
2023-01-22T09:47:17.852Z,37.70
2023-01-22T09:52:32.780Z,43.20
2023-01-22T09:57:34.947Z,37.70
2023-01-22T10:02:46.298Z,32.70
2023-01-22T10:07:57.705Z,39.70
2023-01-22T10:13:10.978Z,39.30
2023-01-22T10:18:25.313Z,34.70
2023-01-22T10:23:27.570Z,37.50
2023-01-22T10:28:30.876Z,42.50
2023-01-22T10:33:38.944Z,30.00
2023-01-22T10:38:41.368Z,31.40
2023-01-22T10:43:43.387Z,44.00
2023-01-22T10:48:45.568Z,38.90
2023-01-22T10:53:58.095Z,39.70
2023-01-22T10:59:05.563Z,41.10
2023-01-22T11:04:30.069Z,41.60
2023-01-22T11:09:54.652Z,39.00
2023-01-22T11:15:32.383Z,28.90
2023-01-22T11:20:46.599Z,34.30
2023-01-22T11:26:11.360Z,46.80
2023-01-22T11:31:44.950Z,44.30
2023-01-22T11:37:05.047Z,40.30
2023-01-22T11:42:25.915Z,34.10
2023-01-22T11:47:34.503Z,50.60
2023-01-22T11:52:54.381Z,44.90
2023-01-22T11:58:32.049Z,48.30
2023-01-22T12:03:44.675Z,36.80
2023-01-22T12:09:01.549Z,48.70
2023-01-22T12:14:19.799Z,50.10
2023-01-22T12:19:49.671Z,48.10
2023-01-22T12:25:01.327Z,42.10
2023-01-22T12:30:43.907Z,75.70
2023-01-22T12:35:53.603Z,40.20
2023-01-22T12:41:18.375Z,44.60
2023-01-22T12:46:42.812Z,55.00
2023-01-22T12:51:53.583Z,41.70
2023-01-22T12:57:17.487Z,65.60
2023-01-22T13:02:25.030Z,60.40
2023-01-22T13:07:29.997Z,46.20
2023-01-22T13:12:47.028Z,56.50
2023-01-22T13:18:07.810Z,57.50
2023-01-22T13:23:21.385Z,63.80
2023-01-22T13:28:25.301Z,50.30
2023-01-22T13:33:29.100Z,46.20
2023-01-22T13:38:35.380Z,56.60
2023-01-22T13:43:39.356Z,46.60
2023-01-22T13:48:42.213Z,51.20
2023-01-22T13:53:50.126Z,65.10
2023-01-22T13:59:05.127Z,66.30
2023-01-22T14:04:24.027Z,53.60
2023-01-22T14:09:39.001Z,53.70
2023-01-22T14:14:42.085Z,69.20
2023-01-22T14:19:44.560Z,70.70
2023-01-22T14:24:47.578Z,73.20
2023-01-22T14:29:50.593Z,67.40
2023-01-22T14:34:52.488Z,48.50
2023-01-22T14:39:54.405Z,50.60
2023-01-22T14:44:56.553Z,50.40
2023-01-22T14:49:58.905Z,60.50
2023-01-22T14:55:00.797Z,64.20
2023-01-22T15:00:05.283Z,50.40
2023-01-22T15:05:08.791Z,48.40
2023-01-22T15:10:11.814Z,57.30
2023-01-22T15:15:14.776Z,54.60
2023-01-22T15:20:18.233Z,49.50
2023-01-22T15:25:20.665Z,65.00
2023-01-22T15:30:23.727Z,55.20
2023-01-22T15:35:25.766Z,76.30
2023-01-22T15:40:27.809Z,77.20
2023-01-22T15:45:31.000Z,85.40
2023-01-22T15:50:36.112Z,97.50
2023-01-22T15:55:38.227Z,81.20
2023-01-22T16:00:40.510Z,91.80
2023-01-22T16:05:43.468Z,83.30
2023-01-22T16:10:45.577Z,76.50
2023-01-22T16:15:59.177Z,104.60
2023-01-22T16:21:06.281Z,103.10
2023-01-22T16:26:13.936Z,110.40
2023-01-22T16:31:23.785Z,103.20
2023-01-22T16:36:29.572Z,104.10
2023-01-22T16:41:34.512Z,113.90
2023-01-22T16:46:43.910Z,117.00
2023-01-22T16:51:48.938Z,127.40
2023-01-22T16:56:52.327Z,109.10
2023-01-22T17:01:55.708Z,85.80
2023-01-22T17:07:01.207Z,100.50
2023-01-22T17:12:05.782Z,113.70
2023-01-22T17:17:09.193Z,119.70
2023-01-22T17:22:13.727Z,149.70
2023-01-22T17:27:18.796Z,139.60
2023-01-22T17:32:22.718Z,127.10
2023-01-22T17:37:24.833Z,165.50
2023-01-22T17:42:27.159Z,163.10
2023-01-22T17:47:29.289Z,110.00
2023-01-22T17:52:31.675Z,133.50
2023-01-22T17:57:37.281Z,122.40
2023-01-22T18:02:40.657Z,111.30
2023-01-22T18:08:02.839Z,102.10
2023-01-22T18:13:04.991Z,116.50
2023-01-22T18:18:07.518Z,101.50
2023-01-22T18:23:11.096Z,111.70
2023-01-22T18:28:15.148Z,102.20
2023-01-22T18:33:18.977Z,79.80
2023-01-22T18:38:25.267Z,87.30
2023-01-22T18:43:27.406Z,100.60
2023-01-22T18:48:29.465Z,100.40
2023-01-22T18:53:32.722Z,96.20
2023-01-22T18:58:34.837Z,81.00
2023-01-22T19:03:36.797Z,96.00
2023-01-22T19:09:03.680Z,102.30
2023-01-22T19:14:09.173Z,118.60
2023-01-22T19:19:13.685Z,121.20
2023-01-22T19:24:35.769Z,114.20
2023-01-22T19:29:38.245Z,99.10
2023-01-22T19:34:42.494Z,122.30
2023-01-22T19:39:44.822Z,114.70
2023-01-22T19:44:47.469Z,97.20
2023-01-22T19:49:51.947Z,102.80
2023-01-22T19:54:56.139Z,81.00
2023-01-22T19:59:59.880Z,80.50
2023-01-22T20:05:02.111Z,71.10
2023-01-22T20:10:05.260Z,89.40
2023-01-22T20:15:08.604Z,70.80
2023-01-22T20:20:13.250Z,68.30
2023-01-22T20:25:15.868Z,61.20
2023-01-22T20:30:19.153Z,44.50
2023-01-22T20:35:21.453Z,65.40
2023-01-22T20:40:25.513Z,64.80
2023-01-22T20:45:28.559Z,61.10
2023-01-22T20:50:30.841Z,79.70
2023-01-22T20:55:34.418Z,70.40
2023-01-22T21:00:37.547Z,65.70
2023-01-22T21:05:40.967Z,62.40
2023-01-22T21:10:43.339Z,65.00
2023-01-22T21:15:46.930Z,57.30
2023-01-22T21:20:50.291Z,69.80
2023-01-22T21:25:52.225Z,66.70
2023-01-22T21:30:54.467Z,66.00
2023-01-22T21:35:56.320Z,48.60
2023-01-22T21:41:13.713Z,53.40
2023-01-22T21:46:27.769Z,41.80
2023-01-22T21:51:32.261Z,41.80
2023-01-22T21:56:34.527Z,44.20
2023-01-22T22:01:37.346Z,60.50
2023-01-22T22:06:39.710Z,55.40
2023-01-22T22:11:43.484Z,33.10
2023-01-22T22:16:46.130Z,24.20
2023-01-22T22:21:51.471Z,30.60
2023-01-22T22:26:53.581Z,27.00
2023-01-22T22:31:55.771Z,33.50
2023-01-22T22:37:00.733Z,44.90
2023-01-22T22:42:05.016Z,46.00
2023-01-22T22:47:07.001Z,50.70
2023-01-22T22:52:12.838Z,33.60
2023-01-22T22:57:23.914Z,35.70
2023-01-22T23:02:26.898Z,37.60
2023-01-22T23:07:32.243Z,23.20
2023-01-22T23:12:34.283Z,44.70
2023-01-22T23:17:38.706Z,33.30
2023-01-22T23:22:45.181Z,33.10
2023-01-22T23:27:47.761Z,35.90
2023-01-22T23:32:50.147Z,34.70
2023-01-22T23:37:57.020Z,32.70
2023-01-22T23:43:00.947Z,39.90
2023-01-22T23:48:03.019Z,40.00
2023-01-22T23:53:07.872Z,45.30
2023-01-22T23:58:10.468Z,48.90
